RYR7 GMMX-GCTS
Flight info
| Callsign | RYR7 |
|---|---|
| Flight time | 1h 28m |
| Altitude | 36000 |
| Route | MAGAV UR975 ADM UN869 RUSIK |
| Aircraft | B38M/M-SDE1FGHILORVWXY/HB1 |
Departure
| Time | 2026-04-27 11:58 |
|---|---|
| Airport | Marrakesh Menara Airport (GMMX) |
Arrival
| Time | 2026-04-27 13:26 |
|---|---|
| Airport | Tenerife Sur Airport (GCTS) |
| Time | Latitude | Longitude | Altitude | Speed | Heading |
|---|---|---|---|---|---|
| 2026-04-27 11:37 | 31.60202 | -8.02298 | 1552 ft | 0 kts | 275° |
| 2026-04-27 11:52 | 31.60200 | -8.02269 | 1552 ft | 4 kts | 278° |
| 2026-04-27 11:52 | 31.60194 | -8.02238 | 1552 ft | 4 kts | 290° |
| 2026-04-27 11:52 | 31.60181 | -8.02215 | 1552 ft | 4 kts | 339° |
| 2026-04-27 11:52 | 31.60173 | -8.02213 | 1552 ft | 0 kts | 6° |
| 2026-04-27 11:55 | 31.60178 | -8.02213 | 1552 ft | 2 kts | 6° |
| 2026-04-27 11:55 | 31.60196 | -8.02210 | 1552 ft | 3 kts | 6° |
| 2026-04-27 11:55 | 31.60224 | -8.02206 | 1552 ft | 5 kts | 6° |
| 2026-04-27 11:55 | 31.60264 | -8.02201 | 1552 ft | 7 kts | 6° |
| 2026-04-27 11:56 | 31.60315 | -8.02194 | 1552 ft | 8 kts | 6° |
| 2026-04-27 11:56 | 31.60378 | -8.02184 | 1551 ft | 10 kts | 10° |
| 2026-04-27 11:56 | 31.60452 | -8.02168 | 1551 ft | 11 kts | 10° |
| 2026-04-27 11:56 | 31.60534 | -8.02155 | 1552 ft | 11 kts | 346° |
| 2026-04-27 11:57 | 31.60565 | -8.02215 | 1552 ft | 9 kts | 276° |
| 2026-04-27 11:57 | 31.60578 | -8.02362 | 1551 ft | 46 kts | 276° |
| 2026-04-27 11:57 | 31.60637 | -8.03039 | 1548 ft | 118 kts | 276° |
| 2026-04-27 11:57 | 31.60750 | -8.04230 | 1629 ft | 166 kts | 276° |
| 2026-04-27 11:58 | 31.60864 | -8.05677 | 1968 ft | 195 kts | 277° |
| 2026-04-27 11:58 | 31.61006 | -8.07272 | 2925 ft | 190 kts | 277° |
| 2026-04-27 11:58 | 31.61152 | -8.08851 | 3653 ft | 206 kts | 277° |
| 2026-04-27 11:58 | 31.61312 | -8.10628 | 4218 ft | 231 kts | 276° |
| 2026-04-27 11:59 | 31.61483 | -8.12582 | 4864 ft | 250 kts | 276° |
| 2026-04-27 11:59 | 31.61668 | -8.14686 | 5578 ft | 268 kts | 276° |
| 2026-04-27 11:59 | 31.61640 | -8.16925 | 6353 ft | 280 kts | 257° |
| 2026-04-27 11:59 | 31.60988 | -8.19096 | 7246 ft | 284 kts | 239° |
| 2026-04-27 12:00 | 31.59870 | -8.20959 | 8196 ft | 285 kts | 226° |
| 2026-04-27 12:00 | 31.58524 | -8.22679 | 9190 ft | 288 kts | 230° |
| 2026-04-27 12:00 | 31.57617 | -8.24797 | 10142 ft | 295 kts | 252° |
| 2026-04-27 12:00 | 31.57262 | -8.27233 | 10716 ft | 313 kts | 261° |
| 2026-04-27 12:01 | 31.56994 | -8.29854 | 11192 ft | 331 kts | 261° |
| 2026-04-27 12:01 | 31.56729 | -8.32559 | 11799 ft | 342 kts | 261° |
| 2026-04-27 12:01 | 31.56468 | -8.35345 | 12690 ft | 343 kts | 261° |
| 2026-04-27 12:01 | 31.56211 | -8.38126 | 13490 ft | 347 kts | 261° |
| 2026-04-27 12:02 | 31.55949 | -8.40969 | 14209 ft | 351 kts | 261° |
| 2026-04-27 12:02 | 31.55686 | -8.43840 | 14919 ft | 355 kts | 261° |
| 2026-04-27 12:02 | 31.55419 | -8.46743 | 15588 ft | 360 kts | 261° |
| 2026-04-27 12:02 | 31.55150 | -8.49676 | 16266 ft | 364 kts | 261° |
| 2026-04-27 12:03 | 31.54876 | -8.52643 | 16922 ft | 368 kts | 261° |
| 2026-04-27 12:03 | 31.54601 | -8.55611 | 17572 ft | 371 kts | 261° |
| 2026-04-27 12:03 | 31.54319 | -8.58652 | 18213 ft | 375 kts | 261° |
| 2026-04-27 12:03 | 31.54038 | -8.61680 | 18758 ft | 379 kts | 261° |
| 2026-04-27 12:04 | 31.53751 | -8.64759 | 19347 ft | 381 kts | 261° |
| 2026-04-27 12:04 | 31.53461 | -8.67861 | 19917 ft | 383 kts | 261° |
| 2026-04-27 12:04 | 31.53168 | -8.70989 | 20481 ft | 386 kts | 261° |
| 2026-04-27 12:04 | 31.52612 | -8.74064 | 21016 ft | 385 kts | 246° |
| 2026-04-27 12:05 | 31.51304 | -8.76737 | 21541 ft | 382 kts | 228° |
| 2026-04-27 12:05 | 31.49340 | -8.78826 | 22044 ft | 382 kts | 211° |
| 2026-04-27 12:05 | 31.46985 | -8.80302 | 22524 ft | 384 kts | 204° |
| 2026-04-27 12:05 | 31.44582 | -8.81629 | 23015 ft | 387 kts | 203° |
| 2026-04-27 12:06 | 31.42105 | -8.82933 | 23534 ft | 390 kts | 202° |
| 2026-04-27 12:06 | 31.39599 | -8.84222 | 23957 ft | 393 kts | 202° |
| 2026-04-27 12:06 | 31.37106 | -8.85485 | 24392 ft | 395 kts | 202° |
| 2026-04-27 12:06 | 31.34560 | -8.86762 | 24816 ft | 397 kts | 202° |
| 2026-04-27 12:07 | 31.32033 | -8.88025 | 25240 ft | 399 kts | 202° |
| 2026-04-27 12:07 | 31.29470 | -8.89303 | 25642 ft | 402 kts | 202° |
| 2026-04-27 12:07 | 31.26882 | -8.90593 | 26055 ft | 404 kts | 202° |
| 2026-04-27 12:07 | 31.24275 | -8.91891 | 26463 ft | 406 kts | 202° |
| 2026-04-27 12:08 | 31.21665 | -8.93190 | 26849 ft | 409 kts | 202° |
| 2026-04-27 12:08 | 31.19075 | -8.94477 | 27306 ft | 409 kts | 202° |
| 2026-04-27 12:08 | 31.16453 | -8.95780 | 27746 ft | 410 kts | 201° |
| 2026-04-27 12:08 | 31.13814 | -8.97092 | 28100 ft | 412 kts | 202° |
| 2026-04-27 12:09 | 31.11157 | -8.98410 | 28444 ft | 415 kts | 202° |
| 2026-04-27 12:09 | 31.08488 | -8.99734 | 28804 ft | 417 kts | 202° |
| 2026-04-27 12:09 | 31.05811 | -9.01062 | 29156 ft | 419 kts | 202° |
| 2026-04-27 12:09 | 31.03119 | -9.02395 | 29506 ft | 422 kts | 202° |
| 2026-04-27 12:10 | 31.00440 | -9.03725 | 29855 ft | 424 kts | 202° |
| 2026-04-27 12:10 | 30.97718 | -9.05076 | 30147 ft | 426 kts | 202° |
| 2026-04-27 12:10 | 30.94975 | -9.06438 | 30426 ft | 428 kts | 202° |
| 2026-04-27 12:10 | 30.92226 | -9.07800 | 30731 ft | 430 kts | 201° |
| 2026-04-27 12:11 | 30.89454 | -9.09174 | 31039 ft | 432 kts | 202° |
| 2026-04-27 12:11 | 30.86714 | -9.10531 | 31253 ft | 436 kts | 202° |
| 2026-04-27 12:11 | 30.83915 | -9.11916 | 31488 ft | 438 kts | 202° |
| 2026-04-27 12:11 | 30.81100 | -9.13308 | 31792 ft | 439 kts | 202° |
| 2026-04-27 12:12 | 30.78281 | -9.14702 | 32126 ft | 439 kts | 202° |
| 2026-04-27 12:12 | 30.75463 | -9.16094 | 32518 ft | 438 kts | 202° |
| 2026-04-27 12:12 | 30.72657 | -9.17480 | 32905 ft | 437 kts | 202° |
| 2026-04-27 12:12 | 30.69894 | -9.18871 | 33275 ft | 437 kts | 203° |
| 2026-04-27 12:13 | 30.67117 | -9.20321 | 33634 ft | 436 kts | 203° |
| 2026-04-27 12:13 | 30.64343 | -9.21761 | 33977 ft | 435 kts | 203° |
| 2026-04-27 12:13 | 30.61569 | -9.23198 | 34296 ft | 435 kts | 203° |
| 2026-04-27 12:13 | 30.58830 | -9.24613 | 34531 ft | 435 kts | 203° |
| 2026-04-27 12:14 | 30.56049 | -9.26051 | 34834 ft | 435 kts | 203° |
| 2026-04-27 12:14 | 30.53314 | -9.27464 | 35131 ft | 434 kts | 204° |
| 2026-04-27 12:14 | 30.50547 | -9.28892 | 35418 ft | 433 kts | 204° |
| 2026-04-27 12:14 | 30.47785 | -9.30316 | 35688 ft | 432 kts | 204° |
| 2026-04-27 12:15 | 30.45028 | -9.31737 | 35898 ft | 433 kts | 204° |
| 2026-04-27 12:15 | 30.39497 | -9.34585 | 35892 ft | 438 kts | 204° |
| 2026-04-27 12:16 | 30.34069 | -9.37782 | 35864 ft | 438 kts | 218° |
| 2026-04-27 12:16 | 30.31965 | -9.40281 | 35895 ft | 440 kts | 233° |
| 2026-04-27 12:16 | 30.30422 | -9.43359 | 35889 ft | 444 kts | 241° |
| 2026-04-27 12:17 | 30.27705 | -9.49836 | 35889 ft | 447 kts | 243° |
| 2026-04-27 12:17 | 30.25086 | -9.56358 | 35897 ft | 449 kts | 244° |
| 2026-04-27 12:18 | 30.22494 | -9.62891 | 35909 ft | 449 kts | 244° |
| 2026-04-27 12:18 | 30.19887 | -9.69461 | 35924 ft | 449 kts | 244° |
| 2026-04-27 12:19 | 30.17291 | -9.75991 | 35923 ft | 449 kts | 244° |
| 2026-04-27 12:19 | 30.14671 | -9.82569 | 35918 ft | 449 kts | 244° |
| 2026-04-27 12:20 | 30.12060 | -9.89115 | 35924 ft | 450 kts | 244° |
| 2026-04-27 12:20 | 30.09429 | -9.95699 | 35924 ft | 451 kts | 244° |
| 2026-04-27 12:21 | 30.06793 | -10.02281 | 35935 ft | 451 kts | 244° |
| 2026-04-27 12:21 | 30.04171 | -10.08820 | 35922 ft | 451 kts | 244° |
| 2026-04-27 12:22 | 30.01530 | -10.15392 | 35922 ft | 451 kts | 244° |
| 2026-04-27 12:22 | 29.98905 | -10.21916 | 35926 ft | 450 kts | 244° |
| 2026-04-27 12:23 | 29.96259 | -10.28479 | 35926 ft | 451 kts | 244° |
| 2026-04-27 12:23 | 29.93617 | -10.35020 | 35924 ft | 450 kts | 244° |
| 2026-04-27 12:24 | 29.90959 | -10.41589 | 35927 ft | 450 kts | 244° |
| 2026-04-27 12:24 | 29.88320 | -10.48099 | 35931 ft | 451 kts | 244° |
| 2026-04-27 12:25 | 29.85670 | -10.54626 | 35930 ft | 451 kts | 244° |
| 2026-04-27 12:25 | 29.83008 | -10.61171 | 35940 ft | 448 kts | 245° |
| 2026-04-27 12:26 | 29.80370 | -10.67645 | 35938 ft | 448 kts | 245° |
| 2026-04-27 12:26 | 29.77719 | -10.74141 | 35937 ft | 447 kts | 245° |
| 2026-04-27 12:27 | 29.75064 | -10.80634 | 35944 ft | 447 kts | 245° |
| 2026-04-27 12:27 | 29.72421 | -10.87088 | 35955 ft | 448 kts | 244° |
| 2026-04-27 12:28 | 29.69759 | -10.93577 | 35946 ft | 448 kts | 244° |
| 2026-04-27 12:28 | 29.67091 | -11.00069 | 35948 ft | 447 kts | 245° |
| 2026-04-27 12:29 | 29.64438 | -11.06515 | 35959 ft | 448 kts | 245° |
| 2026-04-27 12:29 | 29.61770 | -11.12984 | 35956 ft | 448 kts | 245° |
| 2026-04-27 12:30 | 29.59089 | -11.19473 | 35964 ft | 447 kts | 245° |
| 2026-04-27 12:30 | 29.56428 | -11.25904 | 35971 ft | 448 kts | 245° |
| 2026-04-27 12:31 | 29.53743 | -11.32383 | 35970 ft | 448 kts | 245° |
| 2026-04-27 12:31 | 29.51076 | -11.38806 | 35969 ft | 448 kts | 245° |
| 2026-04-27 12:32 | 29.48385 | -11.45277 | 35972 ft | 448 kts | 245° |
| 2026-04-27 12:32 | 29.45696 | -11.51733 | 35973 ft | 448 kts | 245° |
| 2026-04-27 12:33 | 29.43020 | -11.58143 | 35974 ft | 448 kts | 245° |
| 2026-04-27 12:33 | 29.40319 | -11.64607 | 35975 ft | 448 kts | 245° |
| 2026-04-27 12:34 | 29.37617 | -11.71060 | 35979 ft | 448 kts | 245° |
| 2026-04-27 12:34 | 29.34935 | -11.77455 | 35989 ft | 448 kts | 245° |
| 2026-04-27 12:35 | 29.32220 | -11.83918 | 35987 ft | 448 kts | 245° |
| 2026-04-27 12:35 | 29.29520 | -11.90335 | 35989 ft | 448 kts | 245° |
| 2026-04-27 12:36 | 29.26824 | -11.96730 | 35991 ft | 446 kts | 245° |
| 2026-04-27 12:36 | 29.24571 | -12.02068 | 35993 ft | 446 kts | 245° |
| 2026-04-27 12:37 | 29.21412 | -12.09538 | 35988 ft | 446 kts | 245° |
| 2026-04-27 12:37 | 29.18722 | -12.15888 | 35990 ft | 446 kts | 245° |
| 2026-04-27 12:38 | 29.16464 | -12.21212 | 36005 ft | 446 kts | 245° |
| 2026-04-27 12:38 | 29.13748 | -12.27605 | 36006 ft | 446 kts | 245° |
| 2026-04-27 12:39 | 29.11042 | -12.33963 | 36008 ft | 446 kts | 245° |
| 2026-04-27 12:39 | 29.08317 | -12.40354 | 35998 ft | 446 kts | 245° |
| 2026-04-27 12:40 | 29.05607 | -12.46703 | 36010 ft | 447 kts | 245° |
| 2026-04-27 12:40 | 29.02875 | -12.53092 | 36010 ft | 446 kts | 245° |
| 2026-04-27 12:41 | 29.00157 | -12.59441 | 36015 ft | 447 kts | 245° |
| 2026-04-27 12:41 | 28.97421 | -12.65821 | 36011 ft | 446 kts | 245° |
| 2026-04-27 12:42 | 28.94696 | -12.72165 | 36005 ft | 447 kts | 245° |
| 2026-04-27 12:42 | 28.91959 | -12.78530 | 36003 ft | 445 kts | 245° |
| 2026-04-27 12:43 | 28.89044 | -12.84743 | 36017 ft | 442 kts | 243° |
| 2026-04-27 12:43 | 28.86067 | -12.90854 | 36013 ft | 442 kts | 243° |
| 2026-04-27 12:44 | 28.83095 | -12.96981 | 36025 ft | 442 kts | 243° |
| 2026-04-27 12:44 | 28.80106 | -13.03136 | 36017 ft | 442 kts | 243° |
| 2026-04-27 12:45 | 28.77133 | -13.09251 | 36019 ft | 442 kts | 243° |
| 2026-04-27 12:45 | 28.74145 | -13.15387 | 36014 ft | 443 kts | 243° |
| 2026-04-27 12:46 | 28.71146 | -13.21533 | 36017 ft | 443 kts | 243° |
| 2026-04-27 12:46 | 28.68162 | -13.27643 | 36021 ft | 443 kts | 243° |
| 2026-04-27 12:47 | 28.65159 | -13.33782 | 36024 ft | 443 kts | 243° |
| 2026-04-27 12:47 | 28.62153 | -13.39918 | 36028 ft | 443 kts | 243° |
| 2026-04-27 12:48 | 28.59157 | -13.46023 | 36024 ft | 443 kts | 243° |
| 2026-04-27 12:48 | 28.56147 | -13.52151 | 36012 ft | 442 kts | 243° |
| 2026-04-27 12:49 | 28.53170 | -13.58198 | 36026 ft | 439 kts | 243° |
| 2026-04-27 12:49 | 28.50175 | -13.64275 | 36038 ft | 439 kts | 243° |
| 2026-04-27 12:50 | 28.47196 | -13.70312 | 36042 ft | 439 kts | 243° |
| 2026-04-27 12:50 | 28.44197 | -13.76379 | 36048 ft | 439 kts | 243° |
| 2026-04-27 12:51 | 28.41208 | -13.82418 | 36044 ft | 439 kts | 243° |
| 2026-04-27 12:51 | 28.38204 | -13.88478 | 36037 ft | 439 kts | 244° |
| 2026-04-27 12:52 | 28.35207 | -13.94514 | 36045 ft | 438 kts | 244° |
| 2026-04-27 12:52 | 28.32218 | -14.00525 | 36039 ft | 438 kts | 244° |
| 2026-04-27 12:53 | 28.27724 | -14.09549 | 36033 ft | 438 kts | 244° |
| 2026-04-27 12:53 | 28.24712 | -14.15583 | 36029 ft | 438 kts | 244° |
| 2026-04-27 12:54 | 28.21716 | -14.21581 | 36029 ft | 439 kts | 244° |
| 2026-04-27 12:54 | 28.18711 | -14.27587 | 36038 ft | 435 kts | 245° |
| 2026-04-27 12:55 | 28.15734 | -14.33526 | 36037 ft | 434 kts | 245° |
| 2026-04-27 12:55 | 28.12752 | -14.39470 | 36040 ft | 435 kts | 245° |
| 2026-04-27 12:56 | 28.09745 | -14.45453 | 36041 ft | 435 kts | 245° |
| 2026-04-27 12:56 | 28.06770 | -14.51365 | 35382 ft | 432 kts | 244° |
| 2026-04-27 12:57 | 28.05284 | -14.54317 | 34866 ft | 428 kts | 244° |
| 2026-04-27 12:57 | 28.03808 | -14.57246 | 34317 ft | 426 kts | 244° |
| 2026-04-27 12:57 | 28.02349 | -14.60139 | 33513 ft | 429 kts | 244° |
| 2026-04-27 12:57 | 28.00865 | -14.63089 | 32587 ft | 433 kts | 245° |
| 2026-04-27 12:58 | 27.99761 | -14.66246 | 31658 ft | 432 kts | 258° |
| 2026-04-27 12:58 | 27.99018 | -14.69593 | 30862 ft | 441 kts | 257° |
| 2026-04-27 12:58 | 27.98248 | -14.72990 | 30140 ft | 447 kts | 257° |
| 2026-04-27 12:58 | 27.97493 | -14.76392 | 29143 ft | 451 kts | 258° |
| 2026-04-27 12:59 | 27.96738 | -14.79855 | 28164 ft | 454 kts | 258° |
| 2026-04-27 12:59 | 27.95975 | -14.83373 | 26465 ft | 470 kts | 258° |
| 2026-04-27 12:59 | 27.95183 | -14.87033 | 25087 ft | 481 kts | 259° |
| 2026-04-27 12:59 | 27.94399 | -14.90657 | 24128 ft | 467 kts | 258° |
| 2026-04-27 13:00 | 27.93630 | -14.94166 | 22905 ft | 460 kts | 258° |
| 2026-04-27 13:00 | 27.92870 | -14.97651 | 21646 ft | 453 kts | 258° |
| 2026-04-27 13:00 | 27.92121 | -15.01085 | 20448 ft | 445 kts | 258° |
| 2026-04-27 13:00 | 27.91385 | -15.04459 | 19313 ft | 437 kts | 257° |
| 2026-04-27 13:01 | 27.90668 | -15.07736 | 18242 ft | 429 kts | 257° |
| 2026-04-27 13:01 | 27.89956 | -15.10987 | 17076 ft | 422 kts | 257° |
| 2026-04-27 13:01 | 27.89252 | -15.14201 | 16320 ft | 417 kts | 258° |
| 2026-04-27 13:01 | 27.88556 | -15.17371 | 15724 ft | 411 kts | 257° |
| 2026-04-27 13:02 | 27.87898 | -15.20362 | 15987 ft | 383 kts | 258° |
| 2026-04-27 13:02 | 27.87266 | -15.23232 | 15873 ft | 367 kts | 258° |
| 2026-04-27 13:02 | 27.86663 | -15.25974 | 15824 ft | 351 kts | 258° |
| 2026-04-27 13:02 | 27.86081 | -15.28618 | 15730 ft | 339 kts | 257° |
| 2026-04-27 13:03 | 27.85527 | -15.31130 | 15711 ft | 325 kts | 258° |
| 2026-04-27 13:03 | 27.84987 | -15.33566 | 15728 ft | 311 kts | 258° |
| 2026-04-27 13:03 | 27.84473 | -15.35895 | 15713 ft | 298 kts | 259° |
| 2026-04-27 13:03 | 27.83988 | -15.38092 | 15715 ft | 284 kts | 258° |
| 2026-04-27 13:04 | 27.83520 | -15.40209 | 15717 ft | 270 kts | 259° |
| 2026-04-27 13:04 | 27.83075 | -15.42241 | 15719 ft | 270 kts | 260° |
| 2026-04-27 13:04 | 27.82976 | -15.44398 | 15730 ft | 282 kts | 277° |
| 2026-04-27 13:04 | 27.83152 | -15.46677 | 15678 ft | 298 kts | 276° |
| 2026-04-27 13:05 | 27.83325 | -15.49008 | 15697 ft | 304 kts | 276° |
| 2026-04-27 13:05 | 27.83511 | -15.51406 | 15702 ft | 307 kts | 277° |
| 2026-04-27 13:05 | 27.83699 | -15.53802 | 15705 ft | 306 kts | 277° |
| 2026-04-27 13:05 | 27.83888 | -15.56202 | 15711 ft | 306 kts | 277° |
| 2026-04-27 13:06 | 27.84079 | -15.58608 | 15708 ft | 308 kts | 276° |
| 2026-04-27 13:06 | 27.84267 | -15.60991 | 15718 ft | 306 kts | 277° |
| 2026-04-27 13:06 | 27.84458 | -15.63398 | 15711 ft | 307 kts | 276° |
| 2026-04-27 13:06 | 27.84648 | -15.65816 | 15705 ft | 311 kts | 276° |
| 2026-04-27 13:07 | 27.84840 | -15.68263 | 15702 ft | 312 kts | 276° |
| 2026-04-27 13:07 | 27.85032 | -15.70715 | 15717 ft | 311 kts | 276° |
| 2026-04-27 13:07 | 27.85220 | -15.73126 | 15720 ft | 312 kts | 276° |
| 2026-04-27 13:07 | 27.85412 | -15.75572 | 15716 ft | 311 kts | 276° |
| 2026-04-27 13:08 | 27.85601 | -15.78012 | 15707 ft | 311 kts | 276° |
| 2026-04-27 13:08 | 27.85790 | -15.80453 | 15704 ft | 312 kts | 276° |
| 2026-04-27 13:08 | 27.85978 | -15.82873 | 15716 ft | 312 kts | 276° |
| 2026-04-27 13:08 | 27.86168 | -15.85328 | 15715 ft | 312 kts | 276° |
| 2026-04-27 13:09 | 27.86357 | -15.87776 | 15722 ft | 312 kts | 276° |
| 2026-04-27 13:09 | 27.86543 | -15.90201 | 15721 ft | 312 kts | 276° |
| 2026-04-27 13:09 | 27.86730 | -15.92636 | 15496 ft | 310 kts | 276° |
| 2026-04-27 13:09 | 27.86915 | -15.95058 | 15198 ft | 307 kts | 276° |
| 2026-04-27 13:10 | 27.87099 | -15.97458 | 14882 ft | 305 kts | 277° |
| 2026-04-27 13:10 | 27.87281 | -15.99850 | 14569 ft | 303 kts | 276° |
| 2026-04-27 13:10 | 27.87460 | -16.02202 | 14255 ft | 302 kts | 278° |
| 2026-04-27 13:10 | 27.87638 | -16.04557 | 13940 ft | 300 kts | 277° |
| 2026-04-27 13:11 | 27.87816 | -16.06902 | 13598 ft | 299 kts | 276° |
| 2026-04-27 13:11 | 27.87993 | -16.09234 | 13258 ft | 297 kts | 277° |
| 2026-04-27 13:11 | 27.88168 | -16.11561 | 12932 ft | 295 kts | 277° |
| 2026-04-27 13:11 | 27.88338 | -16.13837 | 12630 ft | 292 kts | 277° |
| 2026-04-27 13:12 | 27.88511 | -16.16132 | 12323 ft | 290 kts | 277° |
| 2026-04-27 13:12 | 27.88680 | -16.18398 | 12018 ft | 288 kts | 277° |
| 2026-04-27 13:12 | 27.88849 | -16.20654 | 11708 ft | 286 kts | 278° |
| 2026-04-27 13:12 | 27.89016 | -16.22890 | 11413 ft | 284 kts | 277° |
| 2026-04-27 13:13 | 27.89180 | -16.25094 | 11124 ft | 287 kts | 278° |
| 2026-04-27 13:13 | 27.89349 | -16.27368 | 10817 ft | 292 kts | 277° |
| 2026-04-27 13:13 | 27.89520 | -16.29676 | 10502 ft | 294 kts | 276° |
| 2026-04-27 13:13 | 27.89688 | -16.31953 | 10281 ft | 291 kts | 276° |
| 2026-04-27 13:14 | 27.89852 | -16.34209 | 10135 ft | 283 kts | 278° |
| 2026-04-27 13:14 | 27.90016 | -16.36425 | 9850 ft | 281 kts | 276° |
| 2026-04-27 13:14 | 27.90175 | -16.38598 | 9517 ft | 280 kts | 276° |
| 2026-04-27 13:14 | 27.90337 | -16.40796 | 9196 ft | 279 kts | 276° |
| 2026-04-27 13:15 | 27.90496 | -16.42976 | 8892 ft | 277 kts | 276° |
| 2026-04-27 13:15 | 27.90654 | -16.45145 | 8590 ft | 275 kts | 277° |
| 2026-04-27 13:15 | 27.90809 | -16.47267 | 8297 ft | 273 kts | 277° |
| 2026-04-27 13:15 | 27.90964 | -16.49410 | 7999 ft | 272 kts | 277° |
| 2026-04-27 13:16 | 27.91118 | -16.51537 | 7707 ft | 271 kts | 277° |
| 2026-04-27 13:16 | 27.91271 | -16.53659 | 7410 ft | 269 kts | 277° |
| 2026-04-27 13:16 | 27.91422 | -16.55745 | 7113 ft | 269 kts | 277° |
| 2026-04-27 13:16 | 27.91573 | -16.57851 | 6810 ft | 269 kts | 277° |
| 2026-04-27 13:17 | 27.91724 | -16.59951 | 6551 ft | 267 kts | 277° |
| 2026-04-27 13:17 | 27.91874 | -16.62041 | 6238 ft | 267 kts | 277° |
| 2026-04-27 13:17 | 27.92024 | -16.64145 | 5873 ft | 268 kts | 277° |
| 2026-04-27 13:17 | 27.92060 | -16.66243 | 5482 ft | 273 kts | 264° |
| 2026-04-27 13:18 | 27.91561 | -16.68331 | 5117 ft | 276 kts | 252° |
| 2026-04-27 13:18 | 27.90894 | -16.70369 | 4809 ft | 275 kts | 251° |
| 2026-04-27 13:18 | 27.90250 | -16.72380 | 4507 ft | 274 kts | 251° |
| 2026-04-27 13:18 | 27.89603 | -16.74405 | 4198 ft | 273 kts | 251° |
| 2026-04-27 13:19 | 27.88955 | -16.76414 | 3891 ft | 271 kts | 251° |
| 2026-04-27 13:19 | 27.88307 | -16.78422 | 3584 ft | 270 kts | 251° |
| 2026-04-27 13:19 | 27.87830 | -16.80424 | 3289 ft | 267 kts | 270° |
| 2026-04-27 13:19 | 27.88299 | -16.82399 | 3082 ft | 257 kts | 305° |
| 2026-04-27 13:20 | 27.89606 | -16.83686 | 3036 ft | 243 kts | 333° |
| 2026-04-27 13:20 | 27.91126 | -16.84329 | 3003 ft | 230 kts | 349° |
| 2026-04-27 13:20 | 27.92667 | -16.84410 | 2978 ft | 217 kts | 10° |
| 2026-04-27 13:20 | 27.94100 | -16.83909 | 2985 ft | 216 kts | 25° |
| 2026-04-27 13:21 | 27.95265 | -16.82871 | 2975 ft | 212 kts | 53° |
| 2026-04-27 13:21 | 27.95957 | -16.81474 | 3037 ft | 199 kts | 65° |
| 2026-04-27 13:21 | 27.96491 | -16.80060 | 3010 ft | 197 kts | 67° |
| 2026-04-27 13:21 | 27.97004 | -16.78619 | 3003 ft | 197 kts | 68° |
| 2026-04-27 13:22 | 27.97512 | -16.77167 | 3003 ft | 196 kts | 67° |
| 2026-04-27 13:22 | 27.98002 | -16.75762 | 2974 ft | 192 kts | 67° |
| 2026-04-27 13:22 | 27.98489 | -16.74364 | 3028 ft | 192 kts | 68° |
| 2026-04-27 13:22 | 27.98983 | -16.72947 | 2761 ft | 191 kts | 68° |
| 2026-04-27 13:23 | 27.99462 | -16.71570 | 2557 ft | 189 kts | 66° |
| 2026-04-27 13:23 | 27.99940 | -16.70198 | 2321 ft | 185 kts | 67° |
| 2026-04-27 13:23 | 28.00413 | -16.68847 | 2096 ft | 183 kts | 69° |
| 2026-04-27 13:23 | 28.00874 | -16.67521 | 1850 ft | 178 kts | 69° |
| 2026-04-27 13:24 | 28.01319 | -16.66243 | 1660 ft | 168 kts | 69° |
| 2026-04-27 13:24 | 28.01735 | -16.65050 | 1425 ft | 161 kts | 69° |
| 2026-04-27 13:24 | 28.02134 | -16.63901 | 1202 ft | 153 kts | 69° |
| 2026-04-27 13:24 | 28.02518 | -16.62797 | 1000 ft | 150 kts | 70° |
| 2026-04-27 13:25 | 28.02898 | -16.61709 | 784 ft | 146 kts | 70° |
| 2026-04-27 13:25 | 28.03280 | -16.60636 | 597 ft | 149 kts | 70° |
| 2026-04-27 13:25 | 28.03655 | -16.59529 | 393 ft | 152 kts | 72° |
| 2026-04-27 13:25 | 28.04040 | -16.58440 | 251 ft | 149 kts | 71° |
| 2026-04-27 13:26 | 28.04404 | -16.57379 | 202 ft | 135 kts | 71° |
| 2026-04-27 13:26 | 28.04594 | -16.56811 | 213 ft | 94 kts | 67° |
| 2026-04-27 13:26 | 28.04770 | -16.56312 | 213 ft | 49 kts | 67° |
| 2026-04-27 13:26 | 28.04857 | -16.56070 | 217 ft | 24 kts | 68° |
| 2026-04-27 13:27 | 28.04941 | -16.55854 | 223 ft | 17 kts | 45° |
| 2026-04-27 13:27 | 28.05010 | -16.55843 | 221 ft | 15 kts | 345° |
| 2026-04-27 13:27 | 28.05083 | -16.55909 | 221 ft | 14 kts | 281° |
| 2026-04-27 13:27 | 28.05070 | -16.56020 | 221 ft | 16 kts | 248° |
| 2026-04-27 13:28 | 28.05027 | -16.56142 | 221 ft | 18 kts | 249° |
| 2026-04-27 13:28 | 28.04979 | -16.56279 | 222 ft | 20 kts | 248° |
| 2026-04-27 13:28 | 28.04926 | -16.56432 | 221 ft | 22 kts | 248° |
| 2026-04-27 13:28 | 28.04868 | -16.56595 | 221 ft | 24 kts | 249° |
| 2026-04-27 13:29 | 28.04806 | -16.56775 | 221 ft | 25 kts | 248° |
| 2026-04-27 13:29 | 28.04739 | -16.56966 | 223 ft | 26 kts | 249° |
| 2026-04-27 13:29 | 28.04670 | -16.57148 | 225 ft | 26 kts | 242° |
| 2026-04-27 13:29 | 28.04599 | -16.57342 | 226 ft | 28 kts | 248° |
| 2026-04-27 13:30 | 28.04526 | -16.57550 | 225 ft | 29 kts | 248° |
| 2026-04-27 13:30 | 28.04500 | -16.57663 | 225 ft | 7 kts | 307° |
| 2026-04-27 13:30 | 28.04549 | -16.57692 | 225 ft | 9 kts | 339° |
| 2026-04-27 13:30 | 28.04605 | -16.57694 | 227 ft | 8 kts | 32° |
| 2026-04-27 13:31 | 28.04634 | -16.57654 | 227 ft | 4 kts | 33° |
| 2026-04-27 13:31 | 28.04651 | -16.57656 | 227 ft | 2 kts | 343° |
| 2026-04-27 13:31 | 28.04668 | -16.57663 | 228 ft | 3 kts | 339° |
| 2026-04-27 13:31 | 28.04690 | -16.57672 | 228 ft | 2 kts | 339° |
| 2026-04-27 13:32 | 28.04708 | -16.57680 | 228 ft | 0 kts | 339° |
| 2026-04-27 13:32 | 28.04711 | -16.57682 | 228 ft | 0 kts | 339° |